createdAt,value
2019-01-02T00:00:54.212Z,78.78
2019-01-02T00:01:54.081Z,77.96
2019-01-02T00:02:54.171Z,78.14
2019-01-02T00:03:54.198Z,78.44
2019-01-02T00:04:54.336Z,78.18
2019-01-02T00:05:54.170Z,78.5
2019-01-02T00:06:54.099Z,77.59
2019-01-02T00:07:54.351Z,77.77
2019-01-02T00:08:54.112Z,78.22
2019-01-02T00:09:54.093Z,78.38
2019-01-02T00:10:54.374Z,77.45
2019-01-02T00:11:54.175Z,77.64
2019-01-02T00:12:54.086Z,77.43
2019-01-02T00:13:54.125Z,77.48
2019-01-02T00:14:54.303Z,78.29
2019-01-02T00:15:54.237Z,77.54
2019-01-02T00:16:54.091Z,76.75
2019-01-02T00:17:54.498Z,76.72
2019-01-02T00:18:54.109Z,76.46
2019-01-02T00:19:54.465Z,77.01
2019-01-02T00:20:54.243Z,76.48
2019-01-02T00:21:54.588Z,76.31
2019-01-02T00:22:54.156Z,76.63
2019-01-02T00:23:54.085Z,76.29
2019-01-02T00:24:54.132Z,76.26
2019-01-02T00:25:54.100Z,75.98
2019-01-02T00:26:54.135Z,75.3
2019-01-02T00:27:54.065Z,75.11
2019-01-02T00:28:54.063Z,75.47
2019-01-02T00:29:54.131Z,75.37
2019-01-02T00:30:54.239Z,75.43
2019-01-02T00:31:54.092Z,74.46
2019-01-02T00:32:54.333Z,74.91
2019-01-02T00:33:54.129Z,74.87
2019-01-02T00:34:54.292Z,73.88
2019-01-02T00:35:54.252Z,73.48
2019-01-02T00:36:54.075Z,73.09
2019-01-02T00:37:54.219Z,72.67
2019-01-02T00:38:54.061Z,72.94
2019-01-02T00:39:54.046Z,71.47
2019-01-02T00:40:54.218Z,71.71
2019-01-02T00:41:54.085Z,71.96
2019-01-02T00:42:54.032Z,71.6
2019-01-02T00:43:54.058Z,72.34
2019-01-02T00:44:54.098Z,72.2
2019-01-02T00:45:54.036Z,71.87
2019-01-02T00:46:54.197Z,72.44
2019-01-02T00:47:54.875Z,72.37
2019-01-02T00:48:54.156Z,72.57
2019-01-02T00:49:54.122Z,72.71
2019-01-02T00:50:54.884Z,72.46
2019-01-02T00:51:54.232Z,73.34
2019-01-02T00:52:54.388Z,72.43
2019-01-02T00:53:54.163Z,72
2019-01-02T00:54:54.497Z,72.01
2019-01-02T00:55:54.015Z,72.86
2019-01-02T00:56:54.410Z,73.4
2019-01-02T00:57:54.051Z,72.66
2019-01-02T00:58:54.214Z,72.56
2019-01-02T00:59:54.133Z,73.15
2019-01-02T01:00:54.064Z,72.89
2019-01-02T01:01:54.865Z,72.51
2019-01-02T01:02:54.025Z,72.6
2019-01-02T01:03:54.027Z,72.85
2019-01-02T01:04:54.030Z,72.62
2019-01-02T01:05:54.116Z,72.9
2019-01-02T01:06:54.065Z,72.6
2019-01-02T01:07:54.029Z,72.91
2019-01-02T01:08:54.139Z,73.28
2019-01-02T01:09:54.035Z,73.43
2019-01-02T01:10:54.075Z,73.76
2019-01-02T01:11:53.988Z,73.27
2019-01-02T01:12:54.025Z,73.76
2019-01-02T01:13:54.050Z,74.23
2019-01-02T01:14:54.024Z,74.29
2019-01-02T01:15:54.006Z,74.37
2019-01-02T01:16:54.024Z,74.74
2019-01-02T01:17:54.126Z,74.69
2019-01-02T01:18:54.084Z,74.77
2019-01-02T01:19:54.173Z,74.87
2019-01-02T01:20:54.067Z,74.72
2019-01-02T01:21:54.042Z,75.19
2019-01-02T01:22:54.024Z,75.34
2019-01-02T01:23:54.003Z,75.37
2019-01-02T01:24:54.014Z,74.77
2019-01-02T01:25:54.056Z,74.9
2019-01-02T01:26:53.987Z,74.75
2019-01-02T01:27:54.012Z,73.98
2019-01-02T01:28:54.155Z,74.65
2019-01-02T01:29:54.115Z,74.59
2019-01-02T01:30:54.573Z,74.63
2019-01-02T01:31:54.438Z,74.27
2019-01-02T01:32:54.055Z,74.4
2019-01-02T01:33:54.089Z,74.42
2019-01-02T01:34:54.069Z,73.93
2019-01-02T01:35:54.053Z,73.59
2019-01-02T01:36:54.288Z,74.24
2019-01-02T01:37:54.826Z,74.22
2019-01-02T01:38:54.214Z,74.19
2019-01-02T01:39:54.273Z,74.31
2019-01-02T01:40:54.312Z,73.86
2019-01-02T01:41:54.117Z,73.79
2019-01-02T01:42:53.960Z,73.6
2019-01-02T01:43:54.067Z,73.63
2019-01-02T01:44:54.049Z,71.91
2019-01-02T01:45:54.828Z,71.73
2019-01-02T01:46:54.355Z,71.22
2019-01-02T01:47:54.028Z,70.72
2019-01-02T01:48:53.979Z,70.62
2019-01-02T01:49:53.966Z,70.28
2019-01-02T01:50:54.079Z,70.67
2019-01-02T01:51:54.087Z,70.01
2019-01-02T01:52:54.275Z,70.44
2019-01-02T01:53:54.359Z,70.75
2019-01-02T01:54:54.022Z,70.62
2019-01-02T01:55:54.217Z,69.22
2019-01-02T01:56:54.053Z,69.7
2019-01-02T01:57:54.476Z,69.96
2019-01-02T01:58:53.995Z,69.56
2019-01-02T01:59:54.389Z,69.85
2019-01-02T02:00:54.232Z,69.74
2019-01-02T02:01:54.542Z,69.39
2019-01-02T02:02:54.345Z,69.55
2019-01-02T02:03:54.651Z,69.58
2019-01-02T02:04:54.171Z,70.09
2019-01-02T02:05:54.080Z,70.6
2019-01-02T02:06:54.049Z,70.74
2019-01-02T02:07:54.101Z,70.86
2019-01-02T02:08:54.336Z,71.61
2019-01-02T02:09:54.088Z,71.85
2019-01-02T02:10:54.428Z,71.67
2019-01-02T02:11:54.190Z,71.83
2019-01-02T02:12:54.669Z,71.63
2019-01-02T02:13:53.931Z,71.88
2019-01-02T02:14:54.013Z,71.55
2019-01-02T02:15:54.250Z,71.25
2019-01-02T02:16:54.191Z,71.66
2019-01-02T02:17:54.193Z,71.46
2019-01-02T02:18:53.909Z,71.4
2019-01-02T02:19:53.975Z,72
2019-01-02T02:20:54.390Z,71.77
2019-01-02T02:21:54.163Z,72
2019-01-02T02:22:53.973Z,72.26
2019-01-02T02:23:54.310Z,72.24
2019-01-02T02:24:54.009Z,71.85
2019-01-02T02:25:53.976Z,72.03
2019-01-02T02:26:54.047Z,72.25
2019-01-02T02:27:54.072Z,72.11
2019-01-02T02:28:53.937Z,72.91
2019-01-02T02:29:54.271Z,72.78
2019-01-02T02:30:54.283Z,72.46
2019-01-02T02:31:53.885Z,72.58
2019-01-02T02:32:54.267Z,72.26
2019-01-02T02:33:54.011Z,72.41
2019-01-02T02:34:54.027Z,72.49
2019-01-02T02:35:54.235Z,72.44
2019-01-02T02:36:54.052Z,72.4
2019-01-02T02:37:54.171Z,72.28
2019-01-02T02:38:54.240Z,72.76
2019-01-02T02:39:53.913Z,72.59
2019-01-02T02:40:54.131Z,72.59
2019-01-02T02:41:54.306Z,72.84
2019-01-02T02:42:54.517Z,72.96
2019-01-02T02:43:53.879Z,73.28
2019-01-02T02:44:54.104Z,73.29
2019-01-02T02:45:54.641Z,73.22
2019-01-02T02:46:53.932Z,73.39
2019-01-02T02:47:53.887Z,73.36
2019-01-02T02:48:54.047Z,73.78
2019-01-02T02:49:53.987Z,73.87
2019-01-02T02:50:54.049Z,73.96
2019-01-02T02:51:53.958Z,73.46
2019-01-02T02:52:54.117Z,74.12
2019-01-02T02:53:54.001Z,73.83
2019-01-02T02:54:53.902Z,73.93
2019-01-02T02:55:53.941Z,74.1
2019-01-02T02:56:53.964Z,74.35
2019-01-02T02:57:54.041Z,74.33
2019-01-02T02:58:53.930Z,74.44
2019-01-02T02:59:53.975Z,74.31
2019-01-02T03:00:53.914Z,73.99
2019-01-02T03:01:54.032Z,74.4
2019-01-02T03:02:54.059Z,74.16
2019-01-02T03:03:54.071Z,73.99
2019-01-02T03:04:54.310Z,73.99
2019-01-02T03:05:53.948Z,73.71
2019-01-02T03:06:55.413Z,74.04
2019-01-02T03:07:54.044Z,74.26
2019-01-02T03:08:54.219Z,73.69
2019-01-02T03:09:54.088Z,74.36
2019-01-02T03:10:53.911Z,73.82
2019-01-02T03:11:53.889Z,74.13
2019-01-02T03:12:54.003Z,74.43
2019-01-02T03:13:53.874Z,74.23
2019-01-02T03:14:54.158Z,74.5
2019-01-02T03:15:54.041Z,74.63
2019-01-02T03:16:54.164Z,74.43
2019-01-02T03:17:53.938Z,74.19
2019-01-02T03:18:54.110Z,74.1
2019-01-02T03:19:53.947Z,74.16
2019-01-02T03:20:54.116Z,74.1
2019-01-02T03:21:54.238Z,74.16
2019-01-02T03:22:54.121Z,74.62
2019-01-02T03:23:54.097Z,74.35
2019-01-02T03:24:54.229Z,74.64
2019-01-02T03:25:53.831Z,74.39
2019-01-02T03:26:53.845Z,74.42
2019-01-02T03:27:53.904Z,74.83
2019-01-02T03:28:53.940Z,74.92
2019-01-02T03:29:53.880Z,74.79
2019-01-02T03:30:53.887Z,74.45
2019-01-02T03:31:53.924Z,74.71
2019-01-02T03:32:53.897Z,74.86
2019-01-02T03:33:53.891Z,74.78
2019-01-02T03:34:53.873Z,74.97
2019-01-02T03:35:54.047Z,75.06
2019-01-02T03:36:53.842Z,75.35
2019-01-02T03:37:54.047Z,75.14
2019-01-02T03:38:53.867Z,75.29
2019-01-02T03:39:53.952Z,75.54
2019-01-02T03:40:53.909Z,75.56
2019-01-02T03:41:53.926Z,75.84
2019-01-02T03:42:53.823Z,75.86
2019-01-02T03:43:53.982Z,75.91
2019-01-02T03:44:53.810Z,75.7
2019-01-02T03:45:54.002Z,75.83
2019-01-02T03:46:53.935Z,75.96
2019-01-02T03:47:53.972Z,76.15
2019-01-02T03:48:54.253Z,76.42
2019-01-02T03:49:54.194Z,76.05
2019-01-02T03:50:54.061Z,75.99
2019-01-02T03:51:54.148Z,76.36
2019-01-02T03:52:54.560Z,76.85
2019-01-02T03:53:53.917Z,76.52
2019-01-02T03:54:54.291Z,76.49
2019-01-02T03:55:54.633Z,76.48
2019-01-02T03:56:53.786Z,76.35
2019-01-02T03:57:53.948Z,76.63
2019-01-02T03:58:54.391Z,76.72
2019-01-02T03:59:54.635Z,76.82
2019-01-02T04:00:53.822Z,76.72
2019-01-02T04:01:53.939Z,76.91
2019-01-02T04:02:53.869Z,76.93
2019-01-02T04:03:53.920Z,77.01
2019-01-02T04:04:53.775Z,77.06
2019-01-02T04:05:53.941Z,77.18
2019-01-02T04:06:53.844Z,77.13
2019-01-02T04:07:54.019Z,77.29
2019-01-02T04:08:54.621Z,76.98
2019-01-02T04:09:53.956Z,77.16
2019-01-02T04:10:53.935Z,77.05
2019-01-02T04:11:53.823Z,77.16
2019-01-02T04:12:54.161Z,77.35
2019-01-02T04:13:53.978Z,77.35
2019-01-02T04:14:54.089Z,77.32
2019-01-02T04:15:53.950Z,77.02
2019-01-02T04:16:53.785Z,76.71
2019-01-02T04:17:54.134Z,76.78
2019-01-02T04:18:54.010Z,76.81
2019-01-02T04:19:53.808Z,76.96
2019-01-02T04:20:54.124Z,76.78
2019-01-02T04:21:54.024Z,77.01
2019-01-02T04:22:53.874Z,77.01
2019-01-02T04:23:54.043Z,76.63
2019-01-02T04:24:54.213Z,76.82
2019-01-02T04:25:54.117Z,76.96
2019-01-02T04:26:53.999Z,77.07
2019-01-02T04:27:54.161Z,77.33
2019-01-02T04:28:53.895Z,76.99
2019-01-02T04:29:53.873Z,77.07
2019-01-02T04:30:53.734Z,77.25
2019-01-02T04:31:53.768Z,76.68
2019-01-02T04:32:53.799Z,76.86
2019-01-02T04:33:53.943Z,77.1
2019-01-02T04:34:53.883Z,77.17
2019-01-02T04:35:53.895Z,77.07
2019-01-02T04:36:53.742Z,77.12
2019-01-02T04:37:53.925Z,76.84
2019-01-02T04:38:53.914Z,76.96
2019-01-02T04:39:53.940Z,77.13
2019-01-02T04:40:54.095Z,76.9
2019-01-02T04:41:53.747Z,76.48
2019-01-02T04:42:53.721Z,76.42
2019-01-02T04:43:53.726Z,76.56
2019-01-02T04:44:53.885Z,76.39
2019-01-02T04:45:53.817Z,76.69
2019-01-02T04:46:53.901Z,76.86
2019-01-02T04:47:54.301Z,76.95
2019-01-02T04:48:53.723Z,76.64
2019-01-02T04:49:53.980Z,77.07
2019-01-02T04:50:54.097Z,77.12
2019-01-02T04:51:53.968Z,76.51
2019-01-02T04:52:54.205Z,76.42
2019-01-02T04:53:53.937Z,76.23
2019-01-02T04:54:53.927Z,76.24
2019-01-02T04:55:53.755Z,75.95
2019-01-02T04:56:53.820Z,76.27
2019-01-02T04:57:54.045Z,76.22
2019-01-02T04:58:53.738Z,76.23
2019-01-02T04:59:53.803Z,76.4
2019-01-02T05:00:54.037Z,76.52
2019-01-02T05:01:54.087Z,76.72
2019-01-02T05:02:54.064Z,76.23
2019-01-02T05:03:54.091Z,76.31
2019-01-02T05:04:54.367Z,76.74
2019-01-02T05:05:54.046Z,76.9
2019-01-02T05:06:54.316Z,76.73
2019-01-02T05:07:54.352Z,76.85
2019-01-02T05:08:54.442Z,76.69
2019-01-02T05:09:54.130Z,76.52
2019-01-02T05:10:53.860Z,76.63
2019-01-02T05:11:54.105Z,76.85
2019-01-02T05:12:54.368Z,76.35
2019-01-02T05:13:54.530Z,76.38
2019-01-02T05:14:54.086Z,76.12
2019-01-02T05:15:54.071Z,76.32
2019-01-02T05:16:53.962Z,75.8
2019-01-02T05:17:54.146Z,76.05
2019-01-02T05:18:53.740Z,75.95
2019-01-02T05:19:53.931Z,76.08
2019-01-02T05:20:53.735Z,76.4
2019-01-02T05:21:54.515Z,76.02
2019-01-02T05:22:53.940Z,76.11
2019-01-02T05:23:53.670Z,76.33
2019-01-02T05:24:54.058Z,76.25
2019-01-02T05:25:53.703Z,76.58
2019-01-02T05:26:53.757Z,76.38
2019-01-02T05:27:54.066Z,75.9
2019-01-02T05:28:54.235Z,76.33
2019-01-02T05:29:53.759Z,76.29
2019-01-02T05:30:53.675Z,76
2019-01-02T05:31:54.146Z,75.88
2019-01-02T05:32:53.723Z,76.22
2019-01-02T05:33:54.510Z,76.25
2019-01-02T05:34:53.941Z,76.24
2019-01-02T05:35:53.686Z,76.12
2019-01-02T05:36:53.768Z,76.09
2019-01-02T05:37:54.115Z,76.04
2019-01-02T05:38:53.811Z,76.05
2019-01-02T05:39:53.725Z,75.99
2019-01-02T05:40:54.514Z,75.84
2019-01-02T05:41:53.709Z,75.74
2019-01-02T05:42:54.153Z,76.08
2019-01-02T05:43:53.639Z,76.22
2019-01-02T05:44:53.982Z,76.34
2019-01-02T05:45:53.986Z,76.32
2019-01-02T05:46:54.067Z,75.98
2019-01-02T05:47:54.077Z,75.87
2019-01-02T05:48:53.700Z,75.85
2019-01-02T05:49:53.696Z,75.59
2019-01-02T05:50:53.985Z,75.52
2019-01-02T05:51:53.649Z,75.7
2019-01-02T05:52:53.719Z,75.7
2019-01-02T05:53:53.901Z,75.51
2019-01-02T05:54:54.138Z,75.57
2019-01-02T05:55:54.276Z,75.15
2019-01-02T05:56:53.873Z,75.73
2019-01-02T05:57:54.190Z,75.27
2019-01-02T05:58:54.331Z,75.37
2019-01-02T05:59:53.657Z,75.17
2019-01-02T06:00:53.888Z,75.14
2019-01-02T06:01:54.476Z,75.03
2019-01-02T06:02:53.949Z,74.96
2019-01-02T06:03:53.650Z,75.08
2019-01-02T06:04:53.912Z,74.94
2019-01-02T06:05:53.838Z,74.69
2019-01-02T06:06:53.841Z,75.09
2019-01-02T06:07:53.805Z,74.92
2019-01-02T06:08:53.599Z,75.22
2019-01-02T06:09:53.788Z,74.61
2019-01-02T06:10:53.634Z,74.66
2019-01-02T06:11:53.614Z,75.07
2019-01-02T06:12:53.628Z,74.69
2019-01-02T06:13:53.649Z,74.88
2019-01-02T06:14:53.714Z,74.55
2019-01-02T06:15:53.595Z,74.08
2019-01-02T06:16:53.647Z,74.17
2019-01-02T06:17:53.886Z,74.11
2019-01-02T06:18:53.604Z,74.22
2019-01-02T06:19:53.621Z,74.56
2019-01-02T06:20:53.713Z,74.39
2019-01-02T06:21:53.769Z,73.71
2019-01-02T06:22:53.994Z,74.04
2019-01-02T06:23:53.622Z,73.91
2019-01-02T06:24:53.628Z,73.68
2019-01-02T06:25:53.596Z,73.75
2019-01-02T06:26:53.725Z,74.36
2019-01-02T06:27:53.606Z,74.31
2019-01-02T06:28:53.590Z,73.99
2019-01-02T06:29:54.275Z,73.87
2019-01-02T06:30:54.425Z,74.11
2019-01-02T06:31:53.599Z,73.76
2019-01-02T06:32:53.619Z,73.37
2019-01-02T06:33:53.603Z,74.02
2019-01-02T06:34:53.670Z,73.9
2019-01-02T06:35:53.622Z,73.78
2019-01-02T06:36:53.681Z,73.92
2019-01-02T06:37:53.772Z,74.19
2019-01-02T06:38:53.682Z,74.03
2019-01-02T06:39:53.692Z,74.07
2019-01-02T06:40:53.725Z,74.13
2019-01-02T06:41:54.423Z,74.13
2019-01-02T06:42:53.790Z,74.02
2019-01-02T06:43:53.868Z,73.79
2019-01-02T06:44:53.888Z,73.76
2019-01-02T06:45:53.674Z,73.98
2019-01-02T06:46:53.660Z,74.4
2019-01-02T06:47:53.751Z,74.2
2019-01-02T06:48:53.677Z,74.1
2019-01-02T06:49:53.656Z,73.97
2019-01-02T06:50:53.582Z,73.47
2019-01-02T06:51:53.901Z,73.57
2019-01-02T06:52:53.862Z,73.77
2019-01-02T06:53:53.608Z,73.88
2019-01-02T06:54:53.544Z,73.32
2019-01-02T06:55:53.587Z,73.27
2019-01-02T06:56:54.004Z,73.66
2019-01-02T06:57:53.876Z,73.81
2019-01-02T06:58:53.770Z,73.39
2019-01-02T06:59:53.562Z,73.44
2019-01-02T07:00:53.624Z,73.79
2019-01-02T07:01:54.267Z,73.58
2019-01-02T07:02:53.716Z,73.45
2019-01-02T07:03:54.053Z,73.02
2019-01-02T07:04:54.405Z,73.19
2019-01-02T07:05:53.908Z,73.48
2019-01-02T07:06:53.538Z,73.27
2019-01-02T07:07:53.613Z,73.78
2019-01-02T07:08:53.720Z,73.47
2019-01-02T07:09:53.929Z,73.65
2019-01-02T07:10:53.576Z,73.38
2019-01-02T07:11:53.895Z,73.34
2019-01-02T07:12:54.377Z,73.39
2019-01-02T07:13:53.544Z,73.55
2019-01-02T07:14:53.514Z,73.48
2019-01-02T07:15:54.003Z,73.59
2019-01-02T07:16:53.988Z,73.54
2019-01-02T07:17:54.242Z,73.23
2019-01-02T07:18:54.073Z,73.29
2019-01-02T07:19:53.560Z,73.23
2019-01-02T07:20:53.969Z,73.48
2019-01-02T07:21:53.654Z,72.97
2019-01-02T07:22:53.605Z,73.55
2019-01-02T07:23:53.707Z,73.02
2019-01-02T07:24:54.013Z,73.23
2019-01-02T07:25:54.366Z,73.12
2019-01-02T07:26:53.997Z,73.03
2019-01-02T07:27:53.522Z,73.5
2019-01-02T07:28:53.677Z,73.71
2019-01-02T07:29:53.605Z,73.47
2019-01-02T07:30:53.714Z,73.67
2019-01-02T07:31:53.771Z,73.05
2019-01-02T07:32:54.393Z,73.66
2019-01-02T07:33:54.011Z,73.49
2019-01-02T07:34:53.589Z,73.23
2019-01-02T07:35:53.966Z,73.91
2019-01-02T07:36:53.779Z,73.66
2019-01-02T07:37:53.806Z,73.55
2019-01-02T07:38:53.620Z,73.74
2019-01-02T07:39:53.488Z,73.73
2019-01-02T07:40:53.590Z,73.5
2019-01-02T07:41:53.614Z,73.47
2019-01-02T07:42:53.918Z,73.38
2019-01-02T07:43:53.489Z,73.71
2019-01-02T07:44:53.696Z,73.71
2019-01-02T07:45:53.756Z,73.77
2019-01-02T07:46:54.246Z,73.66
2019-01-02T07:47:54.060Z,73.25
2019-01-02T07:48:53.568Z,73.47
2019-01-02T07:49:53.608Z,73.27
2019-01-02T07:50:53.471Z,73.62
2019-01-02T07:51:53.674Z,73.55
2019-01-02T07:52:53.551Z,73.6
2019-01-02T07:53:53.380Z,73.89
2019-01-02T07:54:53.573Z,73.82
2019-01-02T07:55:53.472Z,73.6
2019-01-02T07:56:53.578Z,74.05
2019-01-02T07:57:53.462Z,74.15
2019-01-02T07:58:53.544Z,73.83
2019-01-02T07:59:53.532Z,73.72
2019-01-02T08:00:54.090Z,74.21
2019-01-02T08:01:53.552Z,73.65
2019-01-02T08:02:53.546Z,73.95
2019-01-02T08:03:53.491Z,74.12
2019-01-02T08:04:53.615Z,73.63
2019-01-02T08:05:53.529Z,73.83
2019-01-02T08:06:53.471Z,74.1
2019-01-02T08:07:53.610Z,73.79
2019-01-02T08:08:53.518Z,73.87
2019-01-02T08:09:54.004Z,73.98
2019-01-02T08:10:53.745Z,73.6
2019-01-02T08:11:54.026Z,73.83
2019-01-02T08:12:53.614Z,74.14
2019-01-02T08:13:53.666Z,73.92
2019-01-02T08:14:53.604Z,74.16
2019-01-02T08:15:53.968Z,74.46
2019-01-02T08:16:53.961Z,73.97
2019-01-02T08:17:53.978Z,74.27
2019-01-02T08:18:53.719Z,74.08
2019-01-02T08:19:54.308Z,74.26
2019-01-02T08:20:53.773Z,73.94
2019-01-02T08:21:53.452Z,73.95
2019-01-02T08:22:54.177Z,74.52
2019-01-02T08:23:54.261Z,74.42
2019-01-02T08:24:54.340Z,74.29
2019-01-02T08:25:53.683Z,73.94
2019-01-02T08:26:53.817Z,74.37
2019-01-02T08:27:53.957Z,74.85
2019-01-02T08:28:54.264Z,74.91
2019-01-02T08:29:53.834Z,74.9
2019-01-02T08:30:53.933Z,75.02
2019-01-02T08:31:53.545Z,75.06
2019-01-02T08:32:53.574Z,75.2
2019-01-02T08:33:53.509Z,75.17
2019-01-02T08:34:53.522Z,75.45
2019-01-02T08:35:53.824Z,75.45
2019-01-02T08:36:53.599Z,75.69
2019-01-02T08:37:54.240Z,75.73
2019-01-02T08:38:53.476Z,75.89
2019-01-02T08:39:53.688Z,75.82
2019-01-02T08:40:53.765Z,75.77
2019-01-02T08:41:53.979Z,75.32
2019-01-02T08:42:53.880Z,75.79
2019-01-02T08:43:54.138Z,75.97
2019-01-02T08:44:53.666Z,76.04
2019-01-02T08:45:54.266Z,76.13
2019-01-02T08:46:53.429Z,76.14
2019-01-02T08:47:53.413Z,76.08
2019-01-02T08:48:54.005Z,76.12
2019-01-02T08:49:54.008Z,76.06
2019-01-02T08:50:53.505Z,76.11
2019-01-02T08:51:53.430Z,76.08
2019-01-02T08:52:53.412Z,76.14
2019-01-02T08:53:53.452Z,76.3
2019-01-02T08:54:53.807Z,76.37
2019-01-02T08:55:53.426Z,76.49
2019-01-02T08:56:53.447Z,76.67
2019-01-02T08:57:53.839Z,76.78
2019-01-02T08:58:53.479Z,76.84
2019-01-02T08:59:53.388Z,76.86
2019-01-02T09:00:53.895Z,76.69
2019-01-02T09:01:53.388Z,76.78
2019-01-02T09:02:53.409Z,76.93
2019-01-02T09:03:53.581Z,76.85
2019-01-02T09:04:53.837Z,77.02
2019-01-02T09:05:53.961Z,77.04
2019-01-02T09:06:53.598Z,77.03
2019-01-02T09:07:53.735Z,76.9
2019-01-02T09:08:53.388Z,77.11
2019-01-02T09:09:53.662Z,77.36
2019-01-02T09:10:53.363Z,77.51
2019-01-02T09:11:53.435Z,77.46
2019-01-02T09:12:53.797Z,77.51
2019-01-02T09:13:53.369Z,77.44
2019-01-02T09:14:53.835Z,77.19
2019-01-02T09:15:53.580Z,77.31
2019-01-02T09:16:53.829Z,77.6
2019-01-02T09:17:53.375Z,77.28
2019-01-02T09:18:53.836Z,77.17
2019-01-02T09:19:53.724Z,77.23
2019-01-02T09:20:53.629Z,76.91
2019-01-02T09:21:53.519Z,76.91
2019-01-02T09:22:54.199Z,76.92
2019-01-02T09:23:53.558Z,77.2
2019-01-02T09:24:53.605Z,77.4
2019-01-02T09:25:53.734Z,77.32
2019-01-02T09:26:53.518Z,77.35
2019-01-02T09:27:53.575Z,77.47
2019-01-02T09:28:53.699Z,77.53
2019-01-02T09:29:53.607Z,77.62
2019-01-02T09:30:53.511Z,77.6
2019-01-02T09:31:53.328Z,77.67
2019-01-02T09:32:53.486Z,77.75
2019-01-02T09:33:53.402Z,77.68
2019-01-02T09:34:53.481Z,77.7
2019-01-02T09:35:53.562Z,77.9
2019-01-02T09:36:53.398Z,77.85
2019-01-02T09:37:54.384Z,77.95
2019-01-02T09:38:53.343Z,77.95
2019-01-02T09:39:53.524Z,78.09
2019-01-02T09:40:53.571Z,78.14
2019-01-02T09:41:53.326Z,78.21
2019-01-02T09:42:53.418Z,78.32
2019-01-02T09:43:53.545Z,78.37
2019-01-02T09:44:53.378Z,78.42
2019-01-02T09:45:53.339Z,78.49
2019-01-02T09:46:53.932Z,78.9
2019-01-02T09:47:53.361Z,78.75
2019-01-02T09:48:53.384Z,78.65
2019-01-02T09:49:53.358Z,78.6
2019-01-02T09:50:53.458Z,78.58
2019-01-02T09:51:53.920Z,78.48
2019-01-02T09:52:53.375Z,78.57
2019-01-02T09:53:53.356Z,78.46
2019-01-02T09:54:53.507Z,78.56
2019-01-02T09:55:53.396Z,78.46
2019-01-02T09:56:53.866Z,78.39
2019-01-02T09:57:53.507Z,78.43
2019-01-02T09:58:53.359Z,78.42
2019-01-02T09:59:53.448Z,78.54
2019-01-02T10:00:53.502Z,78.55
2019-01-02T10:01:54.014Z,78.63
2019-01-02T10:02:53.501Z,78.5
2019-01-02T10:03:54.416Z,78.4
2019-01-02T10:04:53.884Z,78.53
2019-01-02T10:05:53.632Z,77.61
2019-01-02T10:06:53.598Z,76.78
2019-01-02T10:07:53.523Z,76.26
2019-01-02T10:08:53.719Z,75.58
2019-01-02T10:09:53.686Z,75.71
2019-01-02T10:10:53.647Z,75.66
2019-01-02T10:11:53.348Z,75.64
2019-01-02T10:12:53.570Z,75.74
2019-01-02T10:13:53.326Z,75.02
2019-01-02T10:14:53.596Z,74.8
2019-01-02T10:15:53.596Z,74.21
2019-01-02T10:16:53.514Z,73.68
2019-01-02T10:17:54.575Z,73.97
2019-01-02T10:18:53.789Z,73.83
2019-01-02T10:19:53.696Z,74.05
2019-01-02T10:20:53.377Z,74.29
2019-01-02T10:21:53.427Z,73.91
2019-01-02T10:22:53.479Z,74.09
2019-01-02T10:23:53.385Z,74.09
2019-01-02T10:24:53.456Z,73.97
2019-01-02T10:25:53.689Z,73.91
2019-01-02T10:26:53.658Z,73.56
2019-01-02T10:27:54.099Z,73.33
2019-01-02T10:28:53.343Z,73.18
2019-01-02T10:29:53.490Z,73.25
2019-01-02T10:30:53.533Z,72.83
2019-01-02T10:31:53.393Z,72.48
2019-01-02T10:32:53.480Z,72.61
2019-01-02T10:33:53.510Z,72.83
2019-01-02T10:34:54.108Z,73.03
2019-01-02T10:35:53.506Z,73.04
2019-01-02T10:36:53.304Z,72.84
2019-01-02T10:37:55.637Z,72.3
2019-01-02T10:38:53.699Z,72.9
2019-01-02T10:39:53.805Z,72.92
2019-01-02T10:40:53.404Z,72.53
2019-01-02T10:41:53.660Z,72.03
2019-01-02T10:42:53.524Z,71.6
2019-01-02T10:43:53.375Z,71.56
2019-01-02T10:44:53.352Z,71.51
2019-01-02T10:45:53.262Z,71.64
2019-01-02T10:46:53.424Z,71.18
2019-01-02T10:47:53.600Z,71.17
2019-01-02T10:48:53.527Z,71.28
2019-01-02T10:49:53.675Z,70.62
2019-01-02T10:50:53.405Z,70.64
2019-01-02T10:51:53.681Z,70.67
2019-01-02T10:52:53.439Z,70.79
2019-01-02T10:53:54.075Z,71.1
2019-01-02T10:54:53.492Z,71.22
2019-01-02T10:55:53.395Z,71.04
2019-01-02T10:56:53.358Z,71.38
2019-01-02T10:57:53.464Z,70.93
2019-01-02T10:58:54.090Z,70.75
2019-01-02T10:59:53.300Z,70.97
2019-01-02T11:00:53.394Z,70.77
2019-01-02T11:01:54.079Z,70.2
2019-01-02T11:02:53.487Z,70.31
2019-01-02T11:03:53.534Z,69.63
2019-01-02T11:04:53.383Z,69.28
2019-01-02T11:05:53.470Z,69.14
2019-01-02T11:06:53.228Z,68.74
2019-01-02T11:07:53.492Z,68.99
2019-01-02T11:08:53.387Z,69.37
2019-01-02T11:09:53.672Z,68.51
2019-01-02T11:10:53.262Z,68.1
2019-01-02T11:11:53.203Z,69.14
2019-01-02T11:12:53.344Z,68.7
2019-01-02T11:13:53.287Z,68.16
2019-01-02T11:14:53.278Z,68.4
2019-01-02T11:15:53.333Z,67.53
2019-01-02T11:16:53.234Z,67.39
2019-01-02T11:17:53.239Z,67.45
2019-01-02T11:18:53.971Z,66.94
2019-01-02T11:19:53.533Z,67.32
2019-01-02T11:20:53.485Z,67
2019-01-02T11:21:53.290Z,67.56
2019-01-02T11:22:53.231Z,66.92
2019-01-02T11:23:53.118Z,67.27
2019-01-02T11:24:53.390Z,67.31
2019-01-02T11:25:53.322Z,67.7
2019-01-02T11:26:53.231Z,68.14
2019-01-02T11:27:53.279Z,67.17
2019-01-02T11:28:53.290Z,67.14
2019-01-02T11:29:53.346Z,67.06
2019-01-02T11:30:53.201Z,66.33
2019-01-02T11:31:53.345Z,66.83
2019-01-02T11:32:53.285Z,67.63
2019-01-02T11:33:53.493Z,67.05
2019-01-02T11:34:53.405Z,67.28
2019-01-02T11:35:53.226Z,65.64
2019-01-02T11:36:53.303Z,66.28
2019-01-02T11:37:53.247Z,66.01
2019-01-02T11:38:53.423Z,65.66
2019-01-02T11:39:53.491Z,65.69
2019-01-02T11:40:53.383Z,65.27
2019-01-02T11:41:54.486Z,65.19
2019-01-02T11:42:53.388Z,65.17
2019-01-02T11:43:53.570Z,65.29
2019-01-02T11:44:53.308Z,66.1
2019-01-02T11:45:53.298Z,66.1
2019-01-02T11:46:53.475Z,66.38
2019-01-02T11:47:53.287Z,66.69
2019-01-02T11:48:53.286Z,66.83
2019-01-02T11:49:53.268Z,67.07
2019-01-02T11:50:53.994Z,67.14
2019-01-02T11:51:53.251Z,67.8
2019-01-02T11:52:53.337Z,68.47
2019-01-02T11:53:53.273Z,69.02
2019-01-02T11:54:54.394Z,69.27
2019-01-02T11:55:53.206Z,69.6
2019-01-02T11:56:53.611Z,70
2019-01-02T11:57:53.322Z,69.84
2019-01-02T11:58:53.276Z,69.42
2019-01-02T11:59:53.368Z,70.18
2019-01-02T12:00:53.515Z,70.48
2019-01-02T12:01:53.197Z,70.7
2019-01-02T12:02:53.552Z,71.37
2019-01-02T12:03:53.566Z,71.04
2019-01-02T12:04:53.271Z,71.64
2019-01-02T12:05:53.200Z,71.94
2019-01-02T12:06:53.340Z,71.7
2019-01-02T12:07:53.363Z,71.85
2019-01-02T12:08:53.334Z,72.03
2019-01-02T12:09:53.148Z,72.51
2019-01-02T12:10:53.182Z,72.9
2019-01-02T12:11:53.145Z,72.62
2019-01-02T12:12:53.140Z,72.71
2019-01-02T12:13:53.426Z,73.02
2019-01-02T12:14:53.292Z,72.8
2019-01-02T12:15:53.424Z,72.97
2019-01-02T12:16:53.224Z,73.18
2019-01-02T12:17:53.419Z,73
2019-01-02T12:18:53.923Z,73.4
2019-01-02T12:19:53.397Z,73.34
2019-01-02T12:20:54.204Z,73.42
2019-01-02T12:21:53.213Z,73.47
2019-01-02T12:22:53.146Z,73.15
2019-01-02T12:23:53.275Z,72.67
2019-01-02T12:24:53.650Z,72.96
2019-01-02T12:25:53.842Z,73.27
2019-01-02T12:26:53.557Z,72.65
2019-01-02T12:27:53.373Z,72.64
2019-01-02T12:28:53.579Z,72.73
2019-01-02T12:29:53.520Z,72.55
2019-01-02T12:30:53.414Z,72.37
2019-01-02T12:31:53.180Z,72.47
2019-01-02T12:32:53.298Z,72.47
2019-01-02T12:33:53.561Z,72.9
2019-01-02T12:34:53.268Z,71.74
2019-01-02T12:35:53.710Z,71.57
2019-01-02T12:36:53.492Z,71.74
2019-01-02T12:37:53.609Z,71.27
2019-01-02T12:38:53.188Z,70.66
2019-01-02T12:39:53.236Z,70.49
2019-01-02T12:40:53.304Z,70.87
2019-01-02T12:41:53.356Z,70.45
2019-01-02T12:42:53.460Z,69.81
2019-01-02T12:43:53.273Z,67.68
2019-01-02T12:44:53.336Z,67.03
2019-01-02T12:45:53.705Z,66.91
2019-01-02T12:46:53.962Z,67
2019-01-02T12:47:53.439Z,67.27
2019-01-02T12:48:53.748Z,66.76
2019-01-02T12:49:53.114Z,67.59
2019-01-02T12:50:53.106Z,66.89
2019-01-02T12:51:53.569Z,66.55
2019-01-02T12:52:53.259Z,66.49
2019-01-02T12:53:53.173Z,66.64
2019-01-02T12:54:53.474Z,67.01
2019-01-02T12:55:53.202Z,66.77